Time;durP1;ratioP1;P1;durP2;ratioP2;P2;SDS_P1;SDS_P2;PMS_P1;PMS_P2;Temp;Humidity;BMP_temperature;BMP_pressure;BME280_temperature;BME280_humidity;BME280_pressure;Samples;Min_cycle;Max_cycle;Signal;HPM_P1;HPM_P2
2022/12/17 13:06:35;;;;;;;;;;;;;;;-1.34;100.00;102452.09;5049245;28;19928;-73
2022/12/17 13:09:24;;;;;;;;;;;;;;;-1.34;100.00;102451.19;5065748;28;19924;-73
2022/12/17 13:12:02;;;;;;;;;;;;;;;-1.33;100.00;102458.16;5054492;28;19924;-73
2022/12/17 13:14:28;;;;;;;;;;;;;;;-1.33;100.00;102461.66;5055507;28;20006;-73
2022/12/17 13:16:55;;;;;;;;;;;;;;;-1.32;100.00;102457.34;5065513;28;19942;-73
2022/12/17 13:19:33;;;;;;;;;;;;;;;-1.32;100.00;102465.13;5045916;28;19924;-73
2022/12/17 13:22:14;;;;;;;;;;;;;;;-1.32;100.00;102458.22;5053282;28;19928;-73
2022/12/17 13:24:40;;;;;;;;;;;;;;;-1.33;100.00;102453.84;5065346;28;19965;-73
2022/12/17 13:27:25;;;;;;;;;;;;;;;-1.33;100.00;102459.03;5064668;28;20605;-73
2022/12/17 13:29:50;;;;;;;;;;;;;;;-1.34;100.00;102459.88;5050019;28;19928;-73
2022/12/17 13:32:24;;;;;;;;;;;;;;;-1.33;100.00;102460.75;5048485;28;20345;-73
2022/12/17 13:34:56;;;;;;;;;;;;;;;-1.33;100.00;102474.63;5064960;28;20011;-73
2022/12/17 13:37:31;;;;;;;;;;;;;;;-1.34;100.00;102466.78;5038467;28;19924;-73
2022/12/17 13:40:15;;;;;;;;;;;;;;;-1.34;100.00;102470.28;5045886;28;20450;-73
2022/12/17 13:42:43;;;;;;;;;;;;;;;-1.35;100.00;102476.31;5063143;28;19970;-74
2022/12/17 13:45:11;;;;;;;;;;;;;;;-1.36;100.00;102474.56;5045205;28;19929;-73
2022/12/17 13:47:37;;;;;;;;;;;;;;;-1.37;100.00;102467.56;5048773;28;20310;-73
2022/12/17 13:50:13;;;;;;;;;;;;;;;-1.38;100.00;102466.72;5064966;28;19931;-73
2022/12/17 13:52:39;;;;;;;;;;;;;;;-1.39;100.00;102477.06;5064251;28;21686;-73
2022/12/17 13:55:05;;;;;;;;;;;;;;;-1.39;100.00;102474.44;5064157;28;20797;-74
2022/12/17 13:57:34;;;;;;;;;;;;;;;-1.39;100.00;102474.44;5045472;28;19933;-74
2022/12/17 14:00:02;;;;;;;;;;;;;;;-1.41;100.00;102476.13;5054430;28;19967;-73
2022/12/17 14:02:29;;;;;;;;;;;;;;;-1.41;100.00;102476.13;5064493;28;20007;-73
2022/12/17 14:04:56;;;;;;;;;;;;;;;-1.44;100.00;102482.09;5032765;28;21415;-74
2022/12/17 14:07:22;;;;;;;;;;;;;;;-1.45;100.00;102482.94;5063288;28;20030;-74
2022/12/17 14:09:47;;;;;;;;;;;;;;;-1.46;100.00;102482.91;5056271;28;19934;-73
2022/12/17 14:12:22;;;;;;;;;;;;;;;-1.47;100.00;102478.53;5061365;28;20489;-74
2022/12/17 14:14:50;;;;;;;;;;;;;;;-1.50;100.00;102492.31;5031887;28;19924;-73
2022/12/17 14:17:16;;;;;;;;;;;;;;;-1.52;100.00;102479.25;5063284;28;20487;-73
2022/12/17 14:19:42;;;;;;;;;;;;;;;-1.53;100.00;102476.66;5054842;28;19928;-73
2022/12/17 14:22:08;;;;;;;;;;;;;;;-1.55;100.00;102483.47;5048539;28;19931;-73
2022/12/17 14:24:34;;;;;;;;;;;;;;;-1.58;100.00;102483.41;5048616;28;19924;-73
2022/12/17 14:26:59;;;;;;;;;;;;;;;-1.59;100.00;102479.03;5064464;28;19978;-73
2022/12/17 14:29:26;;;;;;;;;;;;;;;-1.62;100.00;102486.72;5045487;28;21390;-73
2022/12/17 14:31:52;;;;;;;;;;;;;;;-1.64;100.00;102484.06;5054517;28;19929;-73
2022/12/17 14:34:18;;;;;;;;;;;;;;;-1.68;100.00;102493.47;5064595;28;19928;-73
2022/12/17 14:36:43;;;;;;;;;;;;;;;-1.71;100.00;102492.50;5045058;28;19966;-73
2022/12/17 14:39:18;;;;;;;;;;;;;;;-1.74;100.00;102488.09;5063563;28;19928;-72
2022/12/17 14:44:28;;;;;;;;;;;;;;;-1.78;100.00;102487.09;5064509;28;20567;-73
2022/12/17 14:47:05;;;;;;;;;;;;;;;-1.80;100.00;102487.91;5044796;28;19932;-73
2022/12/17 14:49:30;;;;;;;;;;;;;;;-1.83;100.00;102491.28;5064678;28;19931;-73
2022/12/17 14:51:57;;;;;;;;;;;;;;;-1.84;100.00;102509.41;5068060;28;19928;-73
2022/12/17 14:54:24;;;;;;;;;;;;;;;-1.87;100.00;102507.59;5068519;28;19995;-73
2022/12/17 14:56:50;;;;;;;;;;;;;;;-1.91;100.00;102503.13;5067859;28;19982;-73
2022/12/17 14:59:24;;;;;;;;;;;;;;;-1.94;100.00;102505.63;5067790;28;19932;-73
2022/12/17 15:01:53;;;;;;;;;;;;;;;-1.96;100.00;102491.72;5068161;28;19939;-72
2022/12/17 15:04:18;;;;;;;;;;;;;;;-1.98;100.00;102503.75;5058204;28;20015;-73
2022/12/17 15:06:44;;;;;;;;;;;;;;;-2.02;100.00;102501.91;5067948;28;19984;-73
2022/12/17 15:09:12;;;;;;;;;;;;;;;-2.05;100.00;102506.13;5058389;28;20422;-73
2022/12/17 15:11:38;;;;;;;;;;;;;;;-2.09;100.00;102496.50;5048168;28;20603;-73
2022/12/17 15:14:03;;;;;;;;;;;;;;;-2.09;100.00;102511.19;5068176;28;19928;-73
2022/12/17 15:16:29;;;;;;;;;;;;;;;-2.13;100.00;102509.31;5067766;28;19939;-73
2022/12/17 15:18:54;;;;;;;;;;;;;;;-2.15;100.00;102511.88;5040839;28;20103;-74
2022/12/17 15:21:19;;;;;;;;;;;;;;;-2.17;100.00;102521.31;5067611;28;19928;-73
2022/12/17 15:23:45;;;;;;;;;;;;;;;-2.20;100.00;102523.78;5041212;28;20368;-74
2022/12/17 15:26:11;;;;;;;;;;;;;;;-2.21;100.00;102529.81;5057287;28;20058;-73
2022/12/17 15:28:36;;;;;;;;;;;;;;;-2.25;100.00;102526.22;5040866;28;20388;-73
2022/12/17 15:31:02;;;;;;;;;;;;;;;-2.25;100.00;102540.91;5067437;28;20081;-73
2022/12/17 15:33:27;;;;;;;;;;;;;;;-2.27;100.00;102539.97;5048150;28;19929;-73
2022/12/17 15:35:53;;;;;;;;;;;;;;;-2.30;100.00;102543.34;5067766;28;19928;-73
2022/12/17 15:38:18;;;;;;;;;;;;;;;-2.34;100.00;102547.53;5067511;28;19928;-73
2022/12/17 15:40:44;;;;;;;;;;;;;;;-2.34;100.00;102549.28;5067414;28;19980;-73
2022/12/17 15:43:10;;;;;;;;;;;;;;;-2.38;100.00;102553.47;5035289;28;20023;-73
2022/12/17 15:45:55;;;;;;;;;;;;;;;-2.40;100.00;102556.84;5058082;28;20031;-73
2022/12/17 15:48:22;;;;;;;;;;;;;;;-2.42;100.00;102561.06;5066929;28;20330;-73
2022/12/17 15:50:47;;;;;;;;;;;;;;;-2.44;100.00;102560.13;5058205;28;19981;-73
2022/12/17 15:53:13;;;;;;;;;;;;;;;-2.47;100.00;102560.91;5040746;28;19925;-73
2022/12/17 15:55:39;;;;;;;;;;;;;;;-2.47;100.00;102566.09;5048161;28;19931;-73
2022/12/17 15:58:05;;;;;;;;;;;;;;;-2.48;100.00;102564.31;5067035;28;20406;-73
2022/12/17 16:00:30;;;;;;;;;;;;;;;-2.50;100.00;102568.59;5066913;28;19955;-73
2022/12/17 16:02:55;;;;;;;;;;;;;;;-2.52;100.00;102565.03;5046917;28;19928;-74
2022/12/17 16:05:21;;;;;;;;;;;;;;;-2.53;100.00;102564.16;5047569;28;19932;-73
2022/12/17 16:07:47;;;;;;;;;;;;;;;-2.56;100.00;102560.56;5047397;28;19928;-73
2022/12/17 16:10:12;;;;;;;;;;;;;;;-2.59;100.00;102566.53;5066889;28;19955;-73
2022/12/17 16:12:38;;;;;;;;;;;;;;;-2.60;100.00;102564.78;5047662;28;20334;-73
2022/12/17 16:15:04;;;;;;;;;;;;;;;-2.63;100.00;102565.53;5066462;28;20619;-73
2022/12/17 16:17:32;;;;;;;;;;;;;;;-2.65;100.00;102568.91;5056980;28;20029;-73
2022/12/17 16:19:59;;;;;;;;;;;;;;;-2.68;100.00;102556.69;5066944;28;19939;-73
2022/12/17 16:22:24;;;;;;;;;;;;;;;-2.71;100.00;102553.09;5066576;28;20791;-73
2022/12/17 16:24:51;;;;;;;;;;;;;;;-2.75;100.00;102553.00;5066539;28;19924;-73
2022/12/17 16:27:17;;;;;;;;;;;;;;;-2.77;100.00;102557.22;5066769;28;19928;-73
2022/12/17 16:29:42;;;;;;;;;;;;;;;-2.79;100.00;102563.22;5066569;28;19935;-73
2022/12/17 16:32:07;;;;;;;;;;;;;;;-2.81;100.00;102563.13;5066508;28;19928;-73
2022/12/17 16:34:33;;;;;;;;;;;;;;;-2.84;100.00;102569.91;5047442;28;21599;-72
2022/12/17 16:37:00;;;;;;;;;;;;;;;-2.87;100.00;102571.56;5066166;28;20720;-73
2022/12/17 16:39:25;;;;;;;;;;;;;;;-2.88;100.00;102569.78;5066624;28;20367;-72
2022/12/17 16:41:51;;;;;;;;;;;;;;;-2.88;100.00;102566.34;5050789;28;19924;-72
2022/12/17 16:44:16;;;;;;;;;;;;;;;-2.91;100.00;102561.91;5050820;28;20451;-72
2022/12/17 16:46:41;;;;;;;;;;;;;;;-2.93;100.00;102563.56;5066409;28;19932;-73
2022/12/17 16:49:07;;;;;;;;;;;;;;;-2.96;100.00;102560.84;5066471;28;19935;-72
2022/12/17 16:51:32;;;;;;;;;;;;;;;-2.98;100.00;102564.19;5066009;28;19932;-74
2022/12/17 16:54:00;;;;;;;;;;;;;;;-3.00;100.00;102571.91;5056084;28;19924;-73
2022/12/17 16:56:26;;;;;;;;;;;;;;;-3.01;100.00;102570.13;5046821;28;20586;-73
2022/12/17 16:58:52;;;;;;;;;;;;;;;-3.04;100.00;102573.50;5056220;28;19968;-73
2022/12/17 17:01:18;;;;;;;;;;;;;;;-3.06;100.00;102572.56;5046676;28;20074;-73
2022/12/17 17:03:44;;;;;;;;;;;;;;;-3.08;100.00;102571.63;5066194;28;19935;-73
2022/12/17 17:06:09;;;;;;;;;;;;;;;-3.09;100.00;102571.56;5064877;28;20390;-73
2022/12/17 17:08:35;;;;;;;;;;;;;;;-3.12;100.00;102580.09;5066026;28;19935;-72
2022/12/17 17:11:06;;;;;;;;;;;;;;;-3.12;100.00;102585.28;5046508;28;19931;-73
2022/12/17 17:13:32;;;;;;;;;;;;;;;-3.14;100.00;102582.63;5045004;28;20501;-73
2022/12/17 17:15:57;;;;;;;;;;;;;;;-3.15;100.00;102591.22;5066073;28;20048;-74
2022/12/17 17:18:22;;;;;;;;;;;;;;;-3.17;100.00;102592.88;5049767;28;19935;-73
2022/12/17 17:20:48;;;;;;;;;;;;;;;-3.18;100.00;102585.03;5064694;28;20362;-73
2022/12/17 17:23:13;;;;;;;;;;;;;;;-3.20;100.00;102589.28;5065193;28;19971;-73
2022/12/17 17:25:39;;;;;;;;;;;;;;;-3.22;100.00;102598.72;5065424;28;20023;-73
2022/12/17 17:28:04;;;;;;;;;;;;;;;-3.24;100.00;102593.44;5064567;28;19934;-73
2022/12/17 17:30:29;;;;;;;;;;;;;;;-3.26;100.00;102582.16;5065073;28;20048;-73
2022/12/17 17:32:55;;;;;;;;;;;;;;;-3.28;100.00;102579.50;5065413;28;20054;-73
2022/12/17 17:35:23;;;;;;;;;;;;;;;-3.29;100.00;102588.09;5055274;28;19971;-73
2022/12/17 17:37:49;;;;;;;;;;;;;;;-3.32;100.00;102593.13;5038729;28;19928;-73
2022/12/17 17:40:14;;;;;;;;;;;;;;;-3.33;100.00;102593.09;5065322;28;19932;-73
2022/12/17 17:42:39;;;;;;;;;;;;;;;-3.34;100.00;102591.31;5064664;28;19929;-73
2022/12/17 17:45:07;;;;;;;;;;;;;;;-3.35;100.00;102597.31;5065044;28;20010;-73
2022/12/17 17:47:32;;;;;;;;;;;;;;;-3.37;100.00;102607.63;5064969;28;19964;-74
2022/12/17 17:49:58;;;;;;;;;;;;;;;-3.38;100.00;102610.16;5044388;28;20047;-72
2022/12/17 17:52:23;;;;;;;;;;;;;;;-3.40;100.00;102599.72;5049335;28;19916;-73
2022/12/17 17:54:49;;;;;;;;;;;;;;;-3.41;100.00;102610.91;5045639;28;19924;-73
2022/12/17 17:57:14;;;;;;;;;;;;;;;-3.43;100.00;102618.59;5064640;28;19962;-72
2022/12/17 17:59:40;;;;;;;;;;;;;;;-3.45;100.00;102615.06;5064618;28;20359;-72
2022/12/17 18:02:05;;;;;;;;;;;;;;;-3.46;100.00;102621.09;5062021;28;19933;-73
2022/12/17 18:04:31;;;;;;;;;;;;;;;-3.47;100.00;102631.38;5064786;28;19966;-73
2022/12/17 18:06:59;;;;;;;;;;;;;;;-3.50;100.00;102621.75;5045370;28;19975;-73
2022/12/17 18:09:25;;;;;;;;;;;;;;;-3.51;100.00;102627.78;5065345;28;19929;-73
2022/12/17 18:11:50;;;;;;;;;;;;;;;-3.53;100.00;102623.34;5045340;28;20053;-73
2022/12/17 18:14:16;;;;;;;;;;;;;;;-3.55;100.00;102620.69;5065025;28;19939;-73
2022/12/17 18:16:43;;;;;;;;;;;;;;;-3.57;100.00;102623.22;5064247;28;19929;-72
2022/12/17 18:19:11;;;;;;;;;;;;;;;-3.59;100.00;102627.44;5028650;28;19928;-72
2022/12/17 18:21:37;;;;;;;;;;;;;;;-3.59;100.00;102634.34;5054831;28;19924;-73
2022/12/17 18:24:13;;;;;;;;;;;;;;;-3.62;100.00;102634.19;5044902;28;19928;-74
2022/12/17 18:26:41;;;;;;;;;;;;;;;-3.62;100.00;102632.50;5054159;28;19930;-74
2022/12/17 18:29:09;;;;;;;;;;;;;;;-3.65;100.00;102641.84;5064439;28;19982;-74
2022/12/17 18:31:35;;;;;;;;;;;;;;;-3.67;100.00;102646.09;5064291;28;20031;-74
2022/12/17 18:34:00;;;;;;;;;;;;;;;-3.70;100.00;102637.34;5045289;28;19946;-74
2022/12/17 18:36:30;;;;;;;;;;;;;;;-3.70;100.00;102645.13;5045574;28;20386;-73
2022/12/17 18:38:56;;;;;;;;;;;;;;;-3.73;100.00;102650.19;5064201;28;19928;-73
2022/12/17 18:44:09;;;;;;;;;;;;;;;-3.76;100.00;102655.19;5064312;28;19935;-73
2022/12/17 18:46:34;;;;;;;;;;;;;;;-3.76;100.00;102647.44;5054099;28;20544;-74
2022/12/17 18:49:02;;;;;;;;;;;;;;;-3.79;100.00;102649.91;5031515;28;19928;-74
2022/12/17 18:51:27;;;;;;;;;;;;;;;-3.80;100.00;102655.00;5064508;28;20343;-73
2022/12/17 18:53:59;;;;;;;;;;;;;;;-3.82;100.00;102653.25;5063849;28;19932;-74
2022/12/17 18:56:28;;;;;;;;;;;;;;;-3.83;100.00;102653.16;5028391;28;19935;-74
2022/12/17 18:58:54;;;;;;;;;;;;;;;-3.85;100.00;102641.88;5037513;28;20614;-74
2022/12/17 19:01:23;;;;;;;;;;;;;;;-3.86;100.00;102646.16;5064144;28;19939;-73
2022/12/17 19:03:49;;;;;;;;;;;;;;;-3.87;100.00;102644.38;5044349;28;20000;-73
2022/12/17 19:06:14;;;;;;;;;;;;;;;-3.88;100.00;102644.34;5044376;28;19946;-73
2022/12/17 19:08:40;;;;;;;;;;;;;;;-3.91;100.00;102650.28;5048437;28;20019;-73
2022/12/17 19:11:06;;;;;;;;;;;;;;;-3.91;100.00;102650.28;5063923;28;19963;-74
2022/12/17 19:13:32;;;;;;;;;;;;;;;-3.92;100.00;102642.44;5028583;28;20020;-74
2022/12/17 19:16:06;;;;;;;;;;;;;;;-3.94;100.00;102650.13;5048989;28;19936;-74
2022/12/17 19:18:32;;;;;;;;;;;;;;;-3.97;100.00;102647.41;5044537;28;20093;-72
2022/12/17 19:20:57;;;;;;;;;;;;;;;-3.98;100.00;102656.00;5063620;28;20667;-72
2022/12/17 19:23:23;;;;;;;;;;;;;;;-3.98;100.00;102650.81;5063628;28;19928;-73
2022/12/17 19:25:51;;;;;;;;;;;;;;;-4.00;100.00;102652.44;5063964;28;19969;-72
2022/12/17 19:28:17;;;;;;;;;;;;;;;-4.04;100.00;102646.25;5037550;28;20349;-72
2022/12/17 19:30:42;;;;;;;;;;;;;;;-4.04;100.00;102646.25;5054237;28;19923;-73
2022/12/17 19:33:07;;;;;;;;;;;;;;;-4.06;100.00;102646.97;5063903;28;19932;-73
2022/12/17 19:35:36;;;;;;;;;;;;;;;-4.07;100.00;102656.47;5044262;28;20121;-73
2022/12/17 19:38:01;;;;;;;;;;;;;;;-4.07;100.00;102665.91;5056567;28;19959;-73
2022/12/17 19:40:27;;;;;;;;;;;;;;;-4.10;100.00;102671.84;5067978;28;20031;-72
2022/12/17 19:42:56;;;;;;;;;;;;;;;-4.12;100.00;102668.31;5067384;28;19975;-72
2022/12/17 19:45:21;;;;;;;;;;;;;;;-4.13;100.00;102680.34;5067861;28;19928;-73
2022/12/17 19:47:47;;;;;;;;;;;;;;;-4.13;100.00;102687.25;5067611;28;19932;-73
2022/12/17 19:50:12;;;;;;;;;;;;;;;-4.15;100.00;102689.75;5057579;28;19928;-73
2022/12/17 19:52:48;;;;;;;;;;;;;;;-4.15;100.00;102694.06;5068263;28;20019;-72
2022/12/17 19:55:16;;;;;;;;;;;;;;;-4.17;100.00;102691.41;5051461;28;19924;-72
2022/12/17 19:57:42;;;;;;;;;;;;;;;-4.18;100.00;102693.91;5067052;28;20054;-73
2022/12/17 20:00:07;;;;;;;;;;;;;;;-4.21;100.00;102688.59;5067208;28;20283;-72
2022/12/17 20:02:33;;;;;;;;;;;;;;;-4.22;100.00;102708.41;5066957;28;20008;-74
2022/12/17 20:04:58;;;;;;;;;;;;;;;-4.24;100.00;102700.56;5046164;28;19924;-73
2022/12/17 20:07:24;;;;;;;;;;;;;;;-4.25;100.00;102691.03;5066501;28;19928;-73
2022/12/17 20:09:55;;;;;;;;;;;;;;;-4.25;100.00;102696.22;5047222;28;19928;-73
2022/12/17 20:12:21;;;;;;;;;;;;;;;-4.27;100.00;102695.25;5066168;28;19924;-73
2022/12/17 20:14:46;;;;;;;;;;;;;;;-4.28;100.00;102695.19;5067081;28;19928;-73
2022/12/17 20:17:11;;;;;;;;;;;;;;;-4.29;100.00;102696.91;5066912;28;19950;-73
2022/12/17 20:19:37;;;;;;;;;;;;;;;-4.31;100.00;102706.28;5046828;28;19935;-73
2022/12/17 20:22:03;;;;;;;;;;;;;;;-4.33;100.00;102712.19;5066500;28;19928;-73
2022/12/17 20:24:29;;;;;;;;;;;;;;;-4.35;100.00;102712.13;5047098;28;19924;-73
2022/12/17 20:26:54;;;;;;;;;;;;;;;-4.35;100.00;102709.56;5034533;28;19939;-73
2022/12/17 20:29:20;;;;;;;;;;;;;;;-4.35;100.00;102722.47;5047146;28;20046;-72
2022/12/17 20:31:45;;;;;;;;;;;;;;;-4.34;100.00;102724.25;5056674;28;20590;-72
2022/12/17 20:34:11;;;;;;;;;;;;;;;-4.31;100.00;102721.78;5065860;28;19997;-72
2022/12/17 20:36:38;;;;;;;;;;;;;;;-4.30;100.00;102715.78;5055948;28;19929;-73
2022/12/17 20:39:03;;;;;;;;;;;;;;;-4.28;100.00;102714.19;5067103;28;19924;-72
2022/12/17 20:41:29;;;;;;;;;;;;;;;-4.27;100.00;102718.53;5046832;28;20391;-72
2022/12/17 20:43:55;;;;;;;;;;;;;;;-4.24;100.00;102717.81;5063834;28;19928;-72
2022/12/17 20:46:21;;;;;;;;;;;;;;;-4.24;100.00;102712.63;5066566;28;19920;-72
2022/12/17 20:48:46;;;;;;;;;;;;;;;-4.25;100.00;102714.31;5046682;28;20080;-72
2022/12/17 20:51:13;;;;;;;;;;;;;;;-4.24;100.00;102725.56;5052852;28;20708;-72
2022/12/17 20:53:38;;;;;;;;;;;;;;;-4.24;100.00;102726.44;5066568;28;19948;-71
2022/12/17 20:56:05;;;;;;;;;;;;;;;-4.24;100.00;102731.59;5065627;28;19924;-72
2022/12/17 20:58:31;;;;;;;;;;;;;;;-4.26;100.00;102717.72;5047031;28;19928;-72
2022/12/17 21:01:03;;;;;;;;;;;;;;;-4.24;100.00;102721.25;5029601;28;19971;-72
2022/12/17 21:03:31;;;;;;;;;;;;;;;-4.25;100.00;102732.41;5029650;28;20539;-72
2022/12/17 21:06:02;;;;;;;;;;;;;;;-4.24;100.00;102726.44;5046992;28;19938;-72
2022/12/17 21:08:27;;;;;;;;;;;;;;;-4.25;100.00;102722.06;5046959;28;19924;-72
2022/12/17 21:10:56;;;;;;;;;;;;;;;-4.25;100.00;102727.25;5046070;28;19994;-73
2022/12/17 21:13:30;;;;;;;;;;;;;;;-4.26;100.00;102728.06;5046859;28;20014;-73
2022/12/17 21:15:56;;;;;;;;;;;;;;;-4.25;100.00;102719.50;5065877;28;19962;-73
2022/12/17 21:18:22;;;;;;;;;;;;;;;-4.26;100.00;102716.81;5045815;28;20003;-73
2022/12/17 21:20:57;;;;;;;;;;;;;;;-4.28;100.00;102719.38;5065758;28;19939;-73
2022/12/17 21:23:23;;;;;;;;;;;;;;;-4.30;100.00;102725.28;5065787;28;19954;-73
2022/12/17 21:25:55;;;;;;;;;;;;;;;-4.33;100.00;102723.44;5055736;28;19928;-72
2022/12/17 21:28:20;;;;;;;;;;;;;;;-4.34;100.00;102719.06;5065896;28;19936;-73
2022/12/17 21:30:45;;;;;;;;;;;;;;;-4.37;100.00;102721.50;5065886;28;19928;-73
2022/12/17 21:33:11;;;;;;;;;;;;;;;-4.39;100.00;102721.44;5065230;28;20387;-73
2022/12/17 21:35:36;;;;;;;;;;;;;;;-4.40;100.00;102724.81;5065193;28;19928;-73
2022/12/17 21:38:02;;;;;;;;;;;;;;;-4.40;100.00;102717.06;5049714;28;19928;-73
2022/12/17 21:40:27;;;;;;;;;;;;;;;-4.40;100.00;102730.00;5049747;28;19928;-73
2022/12/17 21:43:02;;;;;;;;;;;;;;;-4.39;100.00;102730.91;5045995;28;19932;-73
2022/12/17 21:45:32;;;;;;;;;;;;;;;-4.40;100.00;102744.66;5065798;28;19928;-73
2022/12/17 21:47:58;;;;;;;;;;;;;;;-4.41;100.00;102736.00;5065102;28;19928;-73
2022/12/17 21:50:23;;;;;;;;;;;;;;;-4.40;100.00;102739.47;5065575;28;19951;-73
2022/12/17 21:52:49;;;;;;;;;;;;;;;-4.40;100.00;102736.88;5065555;28;20026;-73
2022/12/17 21:55:14;;;;;;;;;;;;;;;-4.40;100.00;102736.88;5065364;28;19939;-73
2022/12/17 21:57:39;;;;;;;;;;;;;;;-4.41;100.00;102748.91;5065539;28;19994;-72
2022/12/17 22:00:05;;;;;;;;;;;;;;;-4.42;100.00;102749.75;5054800;28;19942;-72
2022/12/17 22:02:31;;;;;;;;;;;;;;;-4.42;100.00;102759.22;5064138;28;19932;-73
2022/12/17 22:04:56;;;;;;;;;;;;;;;-4.42;100.00;102757.50;5065020;28;20391;-73
2022/12/17 22:07:22;;;;;;;;;;;;;;;-4.41;100.00;102756.69;5064843;28;19928;-73
2022/12/17 22:09:47;;;;;;;;;;;;;;;-4.43;100.00;102765.19;5048873;28;19928;-72
2022/12/17 22:14:57;;;;;;;;;;;;;;;-4.44;100.00;102768.59;5064891;28;19963;-72
2022/12/17 22:17:22;;;;;;;;;;;;;;;-4.43;100.00;102765.19;5064344;28;20023;-72
2022/12/17 22:19:47;;;;;;;;;;;;;;;-4.45;100.00;102771.97;5064601;28;19947;-72
2022/12/17 22:22:13;;;;;;;;;;;;;;;-4.46;100.00;102776.28;5064601;28;19967;-72
2022/12/17 22:24:38;;;;;;;;;;;;;;;-4.46;100.00;102772.81;5063643;28;19924;-73
2022/12/17 22:27:04;;;;;;;;;;;;;;;-4.47;100.00;102778.78;5064042;28;19981;-72
2022/12/17 22:34:57;;;;;;;;;;;;;;;-4.47;100.00;102776.22;5050731;28;19974;-73
2022/12/17 22:37:23;;;;;;;;;;;;;;;-4.49;100.00;102758.03;5064216;28;19936;-73
2022/12/17 22:39:48;;;;;;;;;;;;;;;-4.47;100.00;102763.28;5044133;28;19928;-73
2022/12/17 22:44:58;;;;;;;;;;;;;;;-4.48;100.00;102764.97;5064049;28;19931;-72
2022/12/17 22:47:23;;;;;;;;;;;;;;;-4.50;100.00;102754.56;5063640;28;19928;-73
2022/12/17 22:49:48;;;;;;;;;;;;;;;-4.51;100.00;102762.25;5064776;28;20325;-72
2022/12/17 22:52:14;;;;;;;;;;;;;;;-4.51;100.00;102751.91;5045308;28;20421;-72
2022/12/17 22:54:39;;;;;;;;;;;;;;;-4.50;100.00;102757.16;5063535;28;19924;-72
2022/12/17 22:57:04;;;;;;;;;;;;;;;-4.50;100.00;102759.75;5064491;28;20379;-72
2022/12/17 22:59:30;;;;;;;;;;;;;;;-4.50;100.00;102761.44;5064353;28;19977;-72
2022/12/17 23:01:55;;;;;;;;;;;;;;;-4.51;100.00;102765.69;5061505;28;19928;-72
2022/12/17 23:04:21;;;;;;;;;;;;;;;-4.50;100.00;102767.50;5064313;28;19948;-71
2022/12/17 23:06:46;;;;;;;;;;;;;;;-4.48;100.00;102766.69;5063947;28;19964;-72
2022/12/17 23:09:17;;;;;;;;;;;;;;;-4.47;100.00;102763.28;5044109;28;19935;-72
2022/12/17 23:11:42;;;;;;;;;;;;;;;-4.46;100.00;102771.13;5045454;28;20051;-73
2022/12/17 23:14:07;;;;;;;;;;;;;;;-4.47;100.00;102761.56;5067695;28;20331;-72
2022/12/17 23:16:33;;;;;;;;;;;;;;;-4.47;100.00;102763.28;5047819;28;19932;-72
2022/12/17 23:18:59;;;;;;;;;;;;;;;-4.49;100.00;102770.94;5067460;28;20015;-72
2022/12/17 23:21:24;;;;;;;;;;;;;;;-4.48;100.00;102774.44;5067760;28;19932;-72
2022/12/17 23:23:50;;;;;;;;;;;;;;;-4.50;100.00;102772.66;5066441;28;19924;-72
2022/12/17 23:26:17;;;;;;;;;;;;;;;-4.51;100.00;102773.47;5041123;28;19928;-73
2022/12/17 23:28:43;;;;;;;;;;;;;;;-4.51;100.00;102776.03;5048375;28;20005;-73
2022/12/17 23:31:09;;;;;;;;;;;;;;;-4.51;100.00;102776.03;5036718;28;19928;-72
2022/12/17 23:33:34;;;;;;;;;;;;;;;-4.51;100.00;102778.63;5047747;28;20028;-73
2022/12/17 23:36:07;;;;;;;;;;;;;;;-4.51;100.00;102772.59;5067529;28;19974;-72
2022/12/17 23:38:32;;;;;;;;;;;;;;;-4.51;100.00;102788.09;5041096;28;19928;-72
2022/12/17 23:41:05;;;;;;;;;;;;;;;-4.52;100.00;102779.44;5048162;28;19924;-72
2022/12/17 23:43:30;;;;;;;;;;;;;;;-4.50;100.00;102782.13;5067611;28;19928;-71
2022/12/17 23:45:56;;;;;;;;;;;;;;;-4.52;100.00;102787.19;5057470;28;19986;-72
2022/12/17 23:48:21;;;;;;;;;;;;;;;-4.53;100.00;102785.44;5067524;28;19936;-72
2022/12/17 23:50:46;;;;;;;;;;;;;;;-4.55;100.00;102776.72;5067912;28;19974;-72
2022/12/17 23:53:12;;;;;;;;;;;;;;;-4.52;100.00;102776.84;5067275;28;20418;-72
2022/12/17 23:55:37;;;;;;;;;;;;;;;-4.51;100.00;102773.47;5067016;28;19932;-72
2022/12/17 23:58:03;;;;;;;;;;;;;;;-4.51;100.00;102772.59;5047576;28;19928;-72
